sensor_id;sensor_type;location;lat;lon;timestamp;temperature;humidity
582;DHT22;277;50.074;8.436;2023-08-08T00:01:17;15.10;99.90
582;DHT22;277;50.074;8.436;2023-08-08T00:03:45;15.10;99.90
582;DHT22;277;50.074;8.436;2023-08-08T00:06:12;15.10;99.90
582;DHT22;277;50.074;8.436;2023-08-08T00:08:40;15.10;99.90
582;DHT22;277;50.074;8.436;2023-08-08T00:11:08;15.10;99.90
582;DHT22;277;50.074;8.436;2023-08-08T00:13:36;15.10;99.90
582;DHT22;277;50.074;8.436;2023-08-08T00:16:04;15.00;99.90
582;DHT22;277;50.074;8.436;2023-08-08T00:18:34;15.00;99.90
582;DHT22;277;50.074;8.436;2023-08-08T00:21:02;15.00;99.90
582;DHT22;277;50.074;8.436;2023-08-08T00:23:30;15.00;99.90
582;DHT22;277;50.074;8.436;2023-08-08T00:25:58;15.00;99.90
582;DHT22;277;50.074;8.436;2023-08-08T00:28:25;14.90;99.90
582;DHT22;277;50.074;8.436;2023-08-08T00:30:53;14.90;99.90
582;DHT22;277;50.074;8.436;2023-08-08T00:33:21;14.90;99.90
582;DHT22;277;50.074;8.436;2023-08-08T00:35:50;14.90;99.90
582;DHT22;277;50.074;8.436;2023-08-08T00:38:18;14.90;99.90
582;DHT22;277;50.074;8.436;2023-08-08T00:40:46;14.90;99.90
582;DHT22;277;50.074;8.436;2023-08-08T00:43:13;15.00;99.90
582;DHT22;277;50.074;8.436;2023-08-08T00:45:42;14.90;99.90
582;DHT22;277;50.074;8.436;2023-08-08T00:48:09;14.90;99.90
582;DHT22;277;50.074;8.436;2023-08-08T00:50:37;14.90;99.90
582;DHT22;277;50.074;8.436;2023-08-08T00:53:07;14.90;99.90
582;DHT22;277;50.074;8.436;2023-08-08T00:55:34;14.80;99.90
582;DHT22;277;50.074;8.436;2023-08-08T00:58:02;14.80;99.90
582;DHT22;277;50.074;8.436;2023-08-08T01:00:31;14.80;99.90
582;DHT22;277;50.074;8.436;2023-08-08T01:02:59;14.80;99.90
582;DHT22;277;50.074;8.436;2023-08-08T01:05:27;14.80;99.90
582;DHT22;277;50.074;8.436;2023-08-08T01:07:59;14.80;99.90
582;DHT22;277;50.074;8.436;2023-08-08T01:10:31;14.80;99.90
582;DHT22;277;50.074;8.436;2023-08-08T01:13:02;14.80;99.90
582;DHT22;277;50.074;8.436;2023-08-08T01:15:31;14.80;99.90
582;DHT22;277;50.074;8.436;2023-08-08T01:18:03;14.80;99.90
582;DHT22;277;50.074;8.436;2023-08-08T01:20:31;14.80;99.90
582;DHT22;277;50.074;8.436;2023-08-08T01:23:09;14.80;99.90
582;DHT22;277;50.074;8.436;2023-08-08T01:25:39;14.80;99.90
582;DHT22;277;50.074;8.436;2023-08-08T01:28:07;14.80;99.90
582;DHT22;277;50.074;8.436;2023-08-08T01:30:55;14.80;99.90
582;DHT22;277;50.074;8.436;2023-08-08T01:33:23;14.80;99.90
582;DHT22;277;50.074;8.436;2023-08-08T01:35:54;14.80;99.90
582;DHT22;277;50.074;8.436;2023-08-08T01:38:24;14.80;99.90
582;DHT22;277;50.074;8.436;2023-08-08T01:40:55;14.80;99.90
582;DHT22;277;50.074;8.436;2023-08-08T01:43:24;14.80;99.90
582;DHT22;277;50.074;8.436;2023-08-08T01:45:52;14.70;99.90
582;DHT22;277;50.074;8.436;2023-08-08T01:48:20;14.70;99.90
582;DHT22;277;50.074;8.436;2023-08-08T01:50:47;14.70;99.90
582;DHT22;277;50.074;8.436;2023-08-08T01:53:15;14.60;99.90
582;DHT22;277;50.074;8.436;2023-08-08T01:55:43;14.50;99.90
582;DHT22;277;50.074;8.436;2023-08-08T01:58:12;14.50;99.90
582;DHT22;277;50.074;8.436;2023-08-08T02:00:40;14.50;99.90
582;DHT22;277;50.074;8.436;2023-08-08T02:03:10;14.40;99.90
582;DHT22;277;50.074;8.436;2023-08-08T02:05:38;14.30;99.90
582;DHT22;277;50.074;8.436;2023-08-08T02:08:06;14.30;99.90
582;DHT22;277;50.074;8.436;2023-08-08T02:10:34;14.30;99.90
582;DHT22;277;50.074;8.436;2023-08-08T02:13:02;14.20;99.90
582;DHT22;277;50.074;8.436;2023-08-08T02:15:31;14.10;99.90
582;DHT22;277;50.074;8.436;2023-08-08T02:17:59;14.10;99.90
582;DHT22;277;50.074;8.436;2023-08-08T02:20:27;14.00;99.90
582;DHT22;277;50.074;8.436;2023-08-08T02:22:55;13.90;99.90
582;DHT22;277;50.074;8.436;2023-08-08T02:25:22;13.90;99.90
582;DHT22;277;50.074;8.436;2023-08-08T02:27:50;13.90;99.90
582;DHT22;277;50.074;8.436;2023-08-08T02:30:18;13.90;99.90
582;DHT22;277;50.074;8.436;2023-08-08T02:32:47;13.90;99.90
582;DHT22;277;50.074;8.436;2023-08-08T02:35:15;13.80;99.90
582;DHT22;277;50.074;8.436;2023-08-08T02:37:43;13.80;99.90
582;DHT22;277;50.074;8.436;2023-08-08T02:40:11;13.80;99.90
582;DHT22;277;50.074;8.436;2023-08-08T02:42:38;13.70;99.90
582;DHT22;277;50.074;8.436;2023-08-08T02:45:06;13.60;99.90
582;DHT22;277;50.074;8.436;2023-08-08T02:47:34;13.60;99.90
582;DHT22;277;50.074;8.436;2023-08-08T02:50:04;13.60;99.90
582;DHT22;277;50.074;8.436;2023-08-08T02:52:32;13.60;99.90
582;DHT22;277;50.074;8.436;2023-08-08T02:55:00;13.50;99.90
582;DHT22;277;50.074;8.436;2023-08-08T02:57:28;13.50;99.90
582;DHT22;277;50.074;8.436;2023-08-08T02:59:56;13.50;99.90
582;DHT22;277;50.074;8.436;2023-08-08T03:02:24;13.50;99.90
582;DHT22;277;50.074;8.436;2023-08-08T03:04:58;13.40;99.90
582;DHT22;277;50.074;8.436;2023-08-08T03:07:28;13.40;99.90
582;DHT22;277;50.074;8.436;2023-08-08T03:09:55;13.40;99.90
582;DHT22;277;50.074;8.436;2023-08-08T03:12:23;13.40;99.90
582;DHT22;277;50.074;8.436;2023-08-08T03:14:51;13.30;99.90
582;DHT22;277;50.074;8.436;2023-08-08T03:17:19;13.30;99.90
582;DHT22;277;50.074;8.436;2023-08-08T03:19:47;13.30;99.90
582;DHT22;277;50.074;8.436;2023-08-08T03:22:15;13.30;99.90
582;DHT22;277;50.074;8.436;2023-08-08T03:24:44;13.30;99.90
582;DHT22;277;50.074;8.436;2023-08-08T03:27:12;13.30;99.90
582;DHT22;277;50.074;8.436;2023-08-08T03:29:39;13.20;99.90
582;DHT22;277;50.074;8.436;2023-08-08T03:32:07;13.10;99.90
582;DHT22;277;50.074;8.436;2023-08-08T03:34:35;13.20;99.90
582;DHT22;277;50.074;8.436;2023-08-08T03:37:03;13.10;99.90
582;DHT22;277;50.074;8.436;2023-08-08T03:39:31;13.10;99.90
582;DHT22;277;50.074;8.436;2023-08-08T03:42:01;13.10;99.90
582;DHT22;277;50.074;8.436;2023-08-08T03:44:28;13.10;99.90
582;DHT22;277;50.074;8.436;2023-08-08T03:46:56;13.10;99.90
582;DHT22;277;50.074;8.436;2023-08-08T03:49:43;13.20;99.90
582;DHT22;277;50.074;8.436;2023-08-08T03:52:11;13.20;99.90
582;DHT22;277;50.074;8.436;2023-08-08T03:54:39;13.10;99.90
582;DHT22;277;50.074;8.436;2023-08-08T03:57:08;13.10;99.90
582;DHT22;277;50.074;8.436;2023-08-08T03:59:36;13.20;99.90
582;DHT22;277;50.074;8.436;2023-08-08T04:02:04;13.10;99.90
582;DHT22;277;50.074;8.436;2023-08-08T04:04:32;13.10;99.90
582;DHT22;277;50.074;8.436;2023-08-08T04:07:00;13.10;99.90
582;DHT22;277;50.074;8.436;2023-08-08T04:09:28;13.10;99.90
582;DHT22;277;50.074;8.436;2023-08-08T04:11:56;13.00;99.90
582;DHT22;277;50.074;8.436;2023-08-08T04:14:25;13.00;99.90
582;DHT22;277;50.074;8.436;2023-08-08T04:16:53;13.00;99.90
582;DHT22;277;50.074;8.436;2023-08-08T04:19:21;13.00;99.90
582;DHT22;277;50.074;8.436;2023-08-08T04:21:49;13.00;99.90
582;DHT22;277;50.074;8.436;2023-08-08T04:24:17;13.00;99.90
582;DHT22;277;50.074;8.436;2023-08-08T04:26:45;12.90;99.90
582;DHT22;277;50.074;8.436;2023-08-08T04:29:13;12.90;99.90
582;DHT22;277;50.074;8.436;2023-08-08T04:31:42;12.90;99.90
582;DHT22;277;50.074;8.436;2023-08-08T04:34:10;12.90;99.90
582;DHT22;277;50.074;8.436;2023-08-08T04:36:37;12.90;99.90
582;DHT22;277;50.074;8.436;2023-08-08T04:39:05;12.90;99.90
582;DHT22;277;50.074;8.436;2023-08-08T04:41:33;12.90;99.90
582;DHT22;277;50.074;8.436;2023-08-08T04:44:01;12.90;99.90
582;DHT22;277;50.074;8.436;2023-08-08T04:46:29;12.90;99.90
582;DHT22;277;50.074;8.436;2023-08-08T04:48:58;12.90;99.90
582;DHT22;277;50.074;8.436;2023-08-08T04:51:26;12.80;99.90
582;DHT22;277;50.074;8.436;2023-08-08T04:53:53;12.80;99.90
582;DHT22;277;50.074;8.436;2023-08-08T04:56:21;12.80;99.90
582;DHT22;277;50.074;8.436;2023-08-08T04:58:49;12.90;99.90
582;DHT22;277;50.074;8.436;2023-08-08T05:01:17;12.90;99.90
582;DHT22;277;50.074;8.436;2023-08-08T05:03:47;12.90;99.90
582;DHT22;277;50.074;8.436;2023-08-08T05:06:16;12.90;99.90
582;DHT22;277;50.074;8.436;2023-08-08T05:08:44;12.90;99.90
582;DHT22;277;50.074;8.436;2023-08-08T05:11:11;12.90;99.90
582;DHT22;277;50.074;8.436;2023-08-08T05:13:39;12.90;99.90
582;DHT22;277;50.074;8.436;2023-08-08T05:16:07;13.00;99.90
582;DHT22;277;50.074;8.436;2023-08-08T05:18:35;13.00;99.90
582;DHT22;277;50.074;8.436;2023-08-08T05:21:03;13.00;99.90
582;DHT22;277;50.074;8.436;2023-08-08T05:23:32;13.10;99.90
582;DHT22;277;50.074;8.436;2023-08-08T05:25:59;13.10;99.90
582;DHT22;277;50.074;8.436;2023-08-08T05:28:27;13.10;99.90
582;DHT22;277;50.074;8.436;2023-08-08T05:30:55;13.10;99.90
582;DHT22;277;50.074;8.436;2023-08-08T05:33:23;13.20;99.90
582;DHT22;277;50.074;8.436;2023-08-08T05:35:51;13.20;99.90
582;DHT22;277;50.074;8.436;2023-08-08T05:38:19;13.30;99.90
582;DHT22;277;50.074;8.436;2023-08-08T05:40:48;13.30;99.90
582;DHT22;277;50.074;8.436;2023-08-08T05:43:16;13.30;99.90
582;DHT22;277;50.074;8.436;2023-08-08T05:45:45;13.40;99.90
582;DHT22;277;50.074;8.436;2023-08-08T05:48:12;13.40;99.90
582;DHT22;277;50.074;8.436;2023-08-08T05:50:40;13.40;99.90
582;DHT22;277;50.074;8.436;2023-08-08T05:53:08;13.50;99.90
582;DHT22;277;50.074;8.436;2023-08-08T05:55:36;13.60;99.90
582;DHT22;277;50.074;8.436;2023-08-08T05:58:05;13.60;99.90
582;DHT22;277;50.074;8.436;2023-08-08T06:00:33;13.60;99.90
582;DHT22;277;50.074;8.436;2023-08-08T06:03:01;13.70;99.90
582;DHT22;277;50.074;8.436;2023-08-08T06:05:29;13.70;99.90
582;DHT22;277;50.074;8.436;2023-08-08T06:07:57;13.80;99.90
582;DHT22;277;50.074;8.436;2023-08-08T06:10:24;13.80;99.90
582;DHT22;277;50.074;8.436;2023-08-08T06:12:52;13.90;99.90
582;DHT22;277;50.074;8.436;2023-08-08T06:15:22;14.00;99.90
582;DHT22;277;50.074;8.436;2023-08-08T06:17:49;14.10;99.90
582;DHT22;277;50.074;8.436;2023-08-08T06:20:17;14.10;99.90
582;DHT22;277;50.074;8.436;2023-08-08T06:22:45;14.20;99.90
582;DHT22;277;50.074;8.436;2023-08-08T06:25:13;14.30;99.90
582;DHT22;277;50.074;8.436;2023-08-08T06:27:41;14.50;99.90
582;DHT22;277;50.074;8.436;2023-08-08T06:30:09;14.60;99.90
582;DHT22;277;50.074;8.436;2023-08-08T06:32:38;14.80;99.90
582;DHT22;277;50.074;8.436;2023-08-08T06:35:06;14.80;99.90
582;DHT22;277;50.074;8.436;2023-08-08T06:37:36;14.90;99.90
582;DHT22;277;50.074;8.436;2023-08-08T06:40:05;14.90;99.90
582;DHT22;277;50.074;8.436;2023-08-08T06:42:33;15.10;99.90
582;DHT22;277;50.074;8.436;2023-08-08T06:45:01;15.20;99.90
582;DHT22;277;50.074;8.436;2023-08-08T06:47:29;15.30;99.90
582;DHT22;277;50.074;8.436;2023-08-08T06:49:58;15.30;99.90
582;DHT22;277;50.074;8.436;2023-08-08T06:52:26;15.40;99.90
582;DHT22;277;50.074;8.436;2023-08-08T06:54:54;15.50;99.90
582;DHT22;277;50.074;8.436;2023-08-08T06:57:21;15.50;99.90
582;DHT22;277;50.074;8.436;2023-08-08T06:59:49;15.60;99.90
582;DHT22;277;50.074;8.436;2023-08-08T07:02:17;15.70;99.90
582;DHT22;277;50.074;8.436;2023-08-08T07:04:45;15.80;99.90
582;DHT22;277;50.074;8.436;2023-08-08T07:07:14;16.00;99.90
582;DHT22;277;50.074;8.436;2023-08-08T07:09:43;16.10;99.90
582;DHT22;277;50.074;8.436;2023-08-08T07:12:10;16.20;99.90
582;DHT22;277;50.074;8.436;2023-08-08T07:14:38;16.30;99.90
582;DHT22;277;50.074;8.436;2023-08-08T07:17:06;16.50;99.90
582;DHT22;277;50.074;8.436;2023-08-08T07:19:34;16.60;99.90
582;DHT22;277;50.074;8.436;2023-08-08T07:22:03;16.70;99.90
582;DHT22;277;50.074;8.436;2023-08-08T07:24:32;16.80;99.90
582;DHT22;277;50.074;8.436;2023-08-08T07:26:59;16.90;99.90
582;DHT22;277;50.074;8.436;2023-08-08T07:29:27;17.00;99.90
582;DHT22;277;50.074;8.436;2023-08-08T07:31:55;17.20;99.90
582;DHT22;277;50.074;8.436;2023-08-08T07:34:23;17.30;99.90
582;DHT22;277;50.074;8.436;2023-08-08T07:36:51;17.50;99.90
582;DHT22;277;50.074;8.436;2023-08-08T07:39:19;17.60;99.90
582;DHT22;277;50.074;8.436;2023-08-08T07:41:48;17.80;99.90
582;DHT22;277;50.074;8.436;2023-08-08T07:44:16;17.90;99.90
582;DHT22;277;50.074;8.436;2023-08-08T07:46:44;18.10;99.90
582;DHT22;277;50.074;8.436;2023-08-08T07:49:11;18.10;99.90
582;DHT22;277;50.074;8.436;2023-08-08T07:51:39;18.10;99.90
582;DHT22;277;50.074;8.436;2023-08-08T07:54:07;18.20;99.90
582;DHT22;277;50.074;8.436;2023-08-08T07:56:35;18.30;99.90
582;DHT22;277;50.074;8.436;2023-08-08T07:59:04;18.30;99.90
582;DHT22;277;50.074;8.436;2023-08-08T08:01:32;18.40;99.90
582;DHT22;277;50.074;8.436;2023-08-08T08:04:00;18.50;99.90
582;DHT22;277;50.074;8.436;2023-08-08T08:06:29;18.60;99.90
582;DHT22;277;50.074;8.436;2023-08-08T08:08:57;18.80;99.90
582;DHT22;277;50.074;8.436;2023-08-08T08:11:25;18.80;99.90
582;DHT22;277;50.074;8.436;2023-08-08T08:13:53;18.90;99.90
582;DHT22;277;50.074;8.436;2023-08-08T08:16:22;18.90;99.90
582;DHT22;277;50.074;8.436;2023-08-08T08:18:50;19.10;99.90
582;DHT22;277;50.074;8.436;2023-08-08T08:21:18;19.10;99.90
582;DHT22;277;50.074;8.436;2023-08-08T08:23:46;19.10;99.90
582;DHT22;277;50.074;8.436;2023-08-08T08:26:14;19.10;99.90
582;DHT22;277;50.074;8.436;2023-08-08T08:28:41;19.00;99.90
582;DHT22;277;50.074;8.436;2023-08-08T08:31:09;19.00;99.90
582;DHT22;277;50.074;8.436;2023-08-08T08:33:38;19.20;99.90
582;DHT22;277;50.074;8.436;2023-08-08T08:36:06;19.10;99.90
582;DHT22;277;50.074;8.436;2023-08-08T08:38:34;19.20;99.90
582;DHT22;277;50.074;8.436;2023-08-08T08:41:02;19.30;99.90
582;DHT22;277;50.074;8.436;2023-08-08T08:43:30;19.30;99.90
582;DHT22;277;50.074;8.436;2023-08-08T08:45:58;19.30;99.90
582;DHT22;277;50.074;8.436;2023-08-08T08:48:28;19.20;99.90
582;DHT22;277;50.074;8.436;2023-08-08T08:50:59;19.40;99.90
582;DHT22;277;50.074;8.436;2023-08-08T08:53:26;19.60;99.90
582;DHT22;277;50.074;8.436;2023-08-08T08:55:54;19.50;99.90
582;DHT22;277;50.074;8.436;2023-08-08T08:58:24;19.50;99.90
582;DHT22;277;50.074;8.436;2023-08-08T09:00:52;19.30;99.90
582;DHT22;277;50.074;8.436;2023-08-08T09:03:20;19.20;99.90
582;DHT22;277;50.074;8.436;2023-08-08T09:05:48;19.30;99.90
582;DHT22;277;50.074;8.436;2023-08-08T09:08:17;19.50;99.90
582;DHT22;277;50.074;8.436;2023-08-08T09:10:45;19.80;99.90
582;DHT22;277;50.074;8.436;2023-08-08T09:13:13;20.00;99.90
582;DHT22;277;50.074;8.436;2023-08-08T09:15:40;20.10;99.90
582;DHT22;277;50.074;8.436;2023-08-08T09:18:08;20.20;99.90
582;DHT22;277;50.074;8.436;2023-08-08T09:20:36;20.50;99.90
582;DHT22;277;50.074;8.436;2023-08-08T09:23:04;20.80;99.90
582;DHT22;277;50.074;8.436;2023-08-08T09:25:33;21.20;99.90
582;DHT22;277;50.074;8.436;2023-08-08T09:28:01;21.10;99.90
582;DHT22;277;50.074;8.436;2023-08-08T09:30:29;20.90;99.90
582;DHT22;277;50.074;8.436;2023-08-08T09:32:59;21.00;99.90
582;DHT22;277;50.074;8.436;2023-08-08T09:35:28;21.10;99.90
582;DHT22;277;50.074;8.436;2023-08-08T09:37:56;21.10;99.90
582;DHT22;277;50.074;8.436;2023-08-08T09:40:23;21.40;99.90
582;DHT22;277;50.074;8.436;2023-08-08T09:42:53;21.80;99.90
582;DHT22;277;50.074;8.436;2023-08-08T09:45:20;22.00;99.90
582;DHT22;277;50.074;8.436;2023-08-08T09:47:49;22.10;99.90
582;DHT22;277;50.074;8.436;2023-08-08T09:50:18;22.10;99.90
582;DHT22;277;50.074;8.436;2023-08-08T09:52:47;22.10;99.90
582;DHT22;277;50.074;8.436;2023-08-08T09:55:14;21.90;99.90
582;DHT22;277;50.074;8.436;2023-08-08T09:57:42;22.20;99.90
582;DHT22;277;50.074;8.436;2023-08-08T10:00:12;22.20;99.90
582;DHT22;277;50.074;8.436;2023-08-08T10:02:43;22.20;99.90
582;DHT22;277;50.074;8.436;2023-08-08T10:05:12;22.10;99.90
582;DHT22;277;50.074;8.436;2023-08-08T10:07:40;22.10;99.90
582;DHT22;277;50.074;8.436;2023-08-08T10:10:09;22.10;99.90
582;DHT22;277;50.074;8.436;2023-08-08T10:12:37;22.40;99.90
582;DHT22;277;50.074;8.436;2023-08-08T10:15:06;22.50;99.90
582;DHT22;277;50.074;8.436;2023-08-08T10:17:36;22.50;99.90
582;DHT22;277;50.074;8.436;2023-08-08T10:20:05;22.60;99.90
582;DHT22;277;50.074;8.436;2023-08-08T10:22:41;22.60;99.90
582;DHT22;277;50.074;8.436;2023-08-08T10:25:16;22.80;99.90
582;DHT22;277;50.074;8.436;2023-08-08T10:27:44;22.90;99.90
582;DHT22;277;50.074;8.436;2023-08-08T10:30:12;23.00;99.90
582;DHT22;277;50.074;8.436;2023-08-08T10:32:43;23.00;99.90
582;DHT22;277;50.074;8.436;2023-08-08T10:35:11;23.00;99.90
582;DHT22;277;50.074;8.436;2023-08-08T10:37:39;22.80;99.90
582;DHT22;277;50.074;8.436;2023-08-08T10:40:07;22.50;99.90
582;DHT22;277;50.074;8.436;2023-08-08T10:42:41;22.50;99.90
582;DHT22;277;50.074;8.436;2023-08-08T10:45:09;22.40;99.90
582;DHT22;277;50.074;8.436;2023-08-08T10:47:37;22.30;99.90
582;DHT22;277;50.074;8.436;2023-08-08T10:50:07;22.20;99.90
582;DHT22;277;50.074;8.436;2023-08-08T10:52:38;22.20;99.90
582;DHT22;277;50.074;8.436;2023-08-08T10:55:06;22.10;99.90
582;DHT22;277;50.074;8.436;2023-08-08T10:57:37;22.30;99.90
582;DHT22;277;50.074;8.436;2023-08-08T11:00:17;22.30;99.90
582;DHT22;277;50.074;8.436;2023-08-08T11:02:46;22.30;99.90
582;DHT22;277;50.074;8.436;2023-08-08T11:05:15;22.20;99.90
582;DHT22;277;50.074;8.436;2023-08-08T11:07:43;22.10;99.90
582;DHT22;277;50.074;8.436;2023-08-08T11:10:11;22.00;99.90
582;DHT22;277;50.074;8.436;2023-08-08T11:12:38;21.90;99.90
582;DHT22;277;50.074;8.436;2023-08-08T11:15:07;21.80;99.90
582;DHT22;277;50.074;8.436;2023-08-08T11:17:34;21.70;99.90
582;DHT22;277;50.074;8.436;2023-08-08T11:20:04;21.70;99.90
582;DHT22;277;50.074;8.436;2023-08-08T11:22:34;21.70;99.90
582;DHT22;277;50.074;8.436;2023-08-08T11:25:01;21.40;99.90
582;DHT22;277;50.074;8.436;2023-08-08T11:27:29;21.50;99.90
582;DHT22;277;50.074;8.436;2023-08-08T11:30:00;21.70;99.90
582;DHT22;277;50.074;8.436;2023-08-08T11:32:29;21.70;99.90
582;DHT22;277;50.074;8.436;2023-08-08T11:34:56;22.00;99.90
582;DHT22;277;50.074;8.436;2023-08-08T11:37:24;22.00;99.90
582;DHT22;277;50.074;8.436;2023-08-08T11:39:53;22.10;99.90
582;DHT22;277;50.074;8.436;2023-08-08T11:42:21;22.00;99.90
582;DHT22;277;50.074;8.436;2023-08-08T11:44:49;22.10;99.90
582;DHT22;277;50.074;8.436;2023-08-08T11:47:23;22.10;99.90
582;DHT22;277;50.074;8.436;2023-08-08T11:49:51;22.30;99.90
582;DHT22;277;50.074;8.436;2023-08-08T11:52:20;22.30;99.90
582;DHT22;277;50.074;8.436;2023-08-08T11:54:50;22.40;99.90
582;DHT22;277;50.074;8.436;2023-08-08T11:57:19;22.60;99.90
582;DHT22;277;50.074;8.436;2023-08-08T11:59:47;22.70;99.90
582;DHT22;277;50.074;8.436;2023-08-08T12:02:15;22.80;99.90
582;DHT22;277;50.074;8.436;2023-08-08T12:04:43;22.80;99.90
582;DHT22;277;50.074;8.436;2023-08-08T12:07:11;22.70;99.90
582;DHT22;277;50.074;8.436;2023-08-08T12:09:39;22.60;99.90
582;DHT22;277;50.074;8.436;2023-08-08T12:12:08;22.60;99.50
582;DHT22;277;50.074;8.436;2023-08-08T12:14:38;22.80;99.40
582;DHT22;277;50.074;8.436;2023-08-08T12:17:22;22.90;99.00
582;DHT22;277;50.074;8.436;2023-08-08T12:19:50;22.90;99.60
582;DHT22;277;50.074;8.436;2023-08-08T12:22:18;23.00;99.90
582;DHT22;277;50.074;8.436;2023-08-08T12:24:45;22.80;98.90
582;DHT22;277;50.074;8.436;2023-08-08T12:27:13;22.70;99.90
582;DHT22;277;50.074;8.436;2023-08-08T12:29:42;23.10;99.90
582;DHT22;277;50.074;8.436;2023-08-08T12:32:10;23.30;99.90
582;DHT22;277;50.074;8.436;2023-08-08T12:34:38;23.30;99.60
582;DHT22;277;50.074;8.436;2023-08-08T12:37:06;23.50;99.90
582;DHT22;277;50.074;8.436;2023-08-08T12:39:34;23.60;99.60
582;DHT22;277;50.074;8.436;2023-08-08T12:42:01;23.40;99.30
582;DHT22;277;50.074;8.436;2023-08-08T12:44:29;23.40;99.00
582;DHT22;277;50.074;8.436;2023-08-08T12:46:58;23.20;99.10
582;DHT22;277;50.074;8.436;2023-08-08T12:49:27;22.80;99.50
582;DHT22;277;50.074;8.436;2023-08-08T12:51:54;22.70;99.90
582;DHT22;277;50.074;8.436;2023-08-08T12:54:22;22.70;99.60
582;DHT22;277;50.074;8.436;2023-08-08T12:56:50;22.80;98.70
582;DHT22;277;50.074;8.436;2023-08-08T12:59:18;23.00;99.00
582;DHT22;277;50.074;8.436;2023-08-08T13:01:46;22.90;98.00
582;DHT22;277;50.074;8.436;2023-08-08T13:04:15;22.80;98.20
582;DHT22;277;50.074;8.436;2023-08-08T13:06:45;22.90;98.20
582;DHT22;277;50.074;8.436;2023-08-08T13:09:13;22.90;98.40
582;DHT22;277;50.074;8.436;2023-08-08T13:11:41;22.90;97.10
582;DHT22;277;50.074;8.436;2023-08-08T13:14:09;23.20;97.50
582;DHT22;277;50.074;8.436;2023-08-08T13:16:38;23.50;96.80
582;DHT22;277;50.074;8.436;2023-08-08T13:19:06;23.40;96.60
582;DHT22;277;50.074;8.436;2023-08-08T13:21:35;23.30;97.40
582;DHT22;277;50.074;8.436;2023-08-08T13:24:03;23.10;97.40
582;DHT22;277;50.074;8.436;2023-08-08T13:26:31;23.10;98.60
582;DHT22;277;50.074;8.436;2023-08-08T13:28:58;23.00;98.50
582;DHT22;277;50.074;8.436;2023-08-08T13:31:26;22.70;98.70
582;DHT22;277;50.074;8.436;2023-08-08T13:33:54;22.70;99.20
582;DHT22;277;50.074;8.436;2023-08-08T13:36:22;22.60;98.80
582;DHT22;277;50.074;8.436;2023-08-08T13:38:51;22.60;98.30
582;DHT22;277;50.074;8.436;2023-08-08T13:41:21;22.40;99.00
582;DHT22;277;50.074;8.436;2023-08-08T13:43:48;22.30;98.60
582;DHT22;277;50.074;8.436;2023-08-08T13:46:16;22.40;98.70
582;DHT22;277;50.074;8.436;2023-08-08T13:48:44;22.30;97.90
582;DHT22;277;50.074;8.436;2023-08-08T13:51:11;22.30;97.90
582;DHT22;277;50.074;8.436;2023-08-08T13:53:39;22.30;97.80
582;DHT22;277;50.074;8.436;2023-08-08T13:56:08;22.20;98.50
582;DHT22;277;50.074;8.436;2023-08-08T13:58:37;22.10;98.50
582;DHT22;277;50.074;8.436;2023-08-08T14:01:05;21.80;98.60
582;DHT22;277;50.074;8.436;2023-08-08T14:03:33;21.80;98.50
582;DHT22;277;50.074;8.436;2023-08-08T14:06:01;21.90;98.60
582;DHT22;277;50.074;8.436;2023-08-08T14:08:28;22.00;98.90
582;DHT22;277;50.074;8.436;2023-08-08T14:10:56;22.40;98.40
582;DHT22;277;50.074;8.436;2023-08-08T14:13:25;22.60;98.00
582;DHT22;277;50.074;8.436;2023-08-08T14:15:53;22.60;98.70
582;DHT22;277;50.074;8.436;2023-08-08T14:18:21;22.30;97.70
582;DHT22;277;50.074;8.436;2023-08-08T14:20:49;22.10;98.50
582;DHT22;277;50.074;8.436;2023-08-08T14:23:17;22.00;98.50
582;DHT22;277;50.074;8.436;2023-08-08T14:25:44;21.90;98.80
582;DHT22;277;50.074;8.436;2023-08-08T14:28:12;21.80;98.70
582;DHT22;277;50.074;8.436;2023-08-08T14:30:41;21.70;99.70
582;DHT22;277;50.074;8.436;2023-08-08T14:33:09;21.50;99.90
582;DHT22;277;50.074;8.436;2023-08-08T14:35:37;21.40;99.60
582;DHT22;277;50.074;8.436;2023-08-08T14:38:05;21.20;99.90
582;DHT22;277;50.074;8.436;2023-08-08T14:40:32;20.90;99.90
582;DHT22;277;50.074;8.436;2023-08-08T14:43:03;20.80;99.90
582;DHT22;277;50.074;8.436;2023-08-08T14:45:36;20.70;99.90
582;DHT22;277;50.074;8.436;2023-08-08T14:48:06;20.50;99.90
582;DHT22;277;50.074;8.436;2023-08-08T14:50:34;20.40;99.90
582;DHT22;277;50.074;8.436;2023-08-08T14:53:02;20.40;99.90
582;DHT22;277;50.074;8.436;2023-08-08T14:55:30;20.40;99.90
582;DHT22;277;50.074;8.436;2023-08-08T14:57:57;20.30;99.90
582;DHT22;277;50.074;8.436;2023-08-08T15:00:25;20.40;99.90
582;DHT22;277;50.074;8.436;2023-08-08T15:02:53;20.40;99.90
582;DHT22;277;50.074;8.436;2023-08-08T15:05:22;20.40;99.90
582;DHT22;277;50.074;8.436;2023-08-08T15:07:50;20.40;99.90
582;DHT22;277;50.074;8.436;2023-08-08T15:10:18;20.50;99.90
582;DHT22;277;50.074;8.436;2023-08-08T15:12:45;20.60;99.90
582;DHT22;277;50.074;8.436;2023-08-08T15:15:13;20.60;99.90
582;DHT22;277;50.074;8.436;2023-08-08T15:17:43;20.50;99.90
582;DHT22;277;50.074;8.436;2023-08-08T15:20:11;20.40;99.90
582;DHT22;277;50.074;8.436;2023-08-08T15:22:40;20.40;99.90
582;DHT22;277;50.074;8.436;2023-08-08T15:25:08;20.40;99.90
582;DHT22;277;50.074;8.436;2023-08-08T15:27:36;20.30;99.90
582;DHT22;277;50.074;8.436;2023-08-08T15:30:04;20.30;99.90
582;DHT22;277;50.074;8.436;2023-08-08T15:32:33;20.30;99.90
582;DHT22;277;50.074;8.436;2023-08-08T15:35:01;20.30;99.90
582;DHT22;277;50.074;8.436;2023-08-08T15:37:29;20.40;99.90
582;DHT22;277;50.074;8.436;2023-08-08T15:39:58;20.40;99.90
582;DHT22;277;50.074;8.436;2023-08-08T15:42:25;20.40;99.90
582;DHT22;277;50.074;8.436;2023-08-08T15:44:53;20.50;99.90
582;DHT22;277;50.074;8.436;2023-08-08T15:47:21;20.60;99.90
582;DHT22;277;50.074;8.436;2023-08-08T15:49:49;20.70;99.90
582;DHT22;277;50.074;8.436;2023-08-08T15:52:17;20.80;99.90
582;DHT22;277;50.074;8.436;2023-08-08T15:54:44;20.90;99.90
582;DHT22;277;50.074;8.436;2023-08-08T15:57:13;21.00;99.90
582;DHT22;277;50.074;8.436;2023-08-08T15:59:41;21.10;99.90
582;DHT22;277;50.074;8.436;2023-08-08T16:02:09;21.20;99.90
582;DHT22;277;50.074;8.436;2023-08-08T16:04:37;21.40;99.90
582;DHT22;277;50.074;8.436;2023-08-08T16:07:05;21.20;99.90
582;DHT22;277;50.074;8.436;2023-08-08T16:09:33;21.10;99.90
582;DHT22;277;50.074;8.436;2023-08-08T16:12:01;21.00;99.90
582;DHT22;277;50.074;8.436;2023-08-08T16:14:30;20.80;99.90
582;DHT22;277;50.074;8.436;2023-08-08T16:16:57;20.50;99.90
582;DHT22;277;50.074;8.436;2023-08-08T16:19:29;20.40;99.90
582;DHT22;277;50.074;8.436;2023-08-08T16:21:57;20.30;99.90
582;DHT22;277;50.074;8.436;2023-08-08T16:24:25;20.10;99.90
582;DHT22;277;50.074;8.436;2023-08-08T16:26:52;20.10;99.90
582;DHT22;277;50.074;8.436;2023-08-08T16:29:20;20.20;99.90
582;DHT22;277;50.074;8.436;2023-08-08T16:31:49;20.20;99.90
582;DHT22;277;50.074;8.436;2023-08-08T16:34:17;20.30;99.90
582;DHT22;277;50.074;8.436;2023-08-08T16:36:45;20.40;99.90
582;DHT22;277;50.074;8.436;2023-08-08T16:39:13;20.40;99.90
582;DHT22;277;50.074;8.436;2023-08-08T16:41:44;20.40;99.90